createdAt,value
2023-04-20T00:02:18.222Z,1.98
2023-04-20T00:07:41.807Z,1.83
2023-04-20T00:13:03.631Z,1.45
2023-04-20T00:18:25.598Z,1.30
2023-04-20T00:23:47.980Z,1.95
2023-04-20T00:29:09.917Z,2.40
2023-04-20T00:34:31.678Z,2.47
2023-04-20T00:39:53.407Z,1.08
2023-04-20T00:45:15.254Z,1.05
2023-04-20T00:50:38.852Z,2.97
2023-04-20T00:56:00.957Z,1.45
2023-04-20T01:01:22.892Z,0.90
2023-04-20T01:06:44.739Z,1.05
2023-04-20T01:12:07.598Z,1.80
2023-04-20T01:17:29.775Z,1.58
2023-04-20T01:22:54.574Z,1.05
2023-04-20T01:28:16.477Z,1.20
2023-04-20T01:33:38.882Z,1.27
2023-04-20T01:39:01.527Z,1.30
2023-04-20T01:44:23.292Z,1.67
2023-04-20T01:49:45.362Z,1.08
2023-04-20T01:55:07.521Z,3.25
2023-04-20T02:00:29.672Z,2.55
2023-04-20T02:05:51.486Z,2.17
2023-04-20T02:11:13.307Z,0.70
2023-04-20T02:16:35.877Z,2.10
2023-04-20T02:21:57.690Z,3.55
2023-04-20T02:27:19.453Z,1.10
2023-04-20T02:32:41.451Z,2.53
2023-04-20T02:38:03.417Z,1.17
2023-04-20T02:43:25.327Z,4.90
2023-04-20T02:48:47.184Z,2.40
2023-04-20T02:54:08.994Z,0.63
2023-04-20T02:59:30.786Z,0.93
2023-04-20T03:04:52.828Z,1.50
2023-04-20T03:10:14.897Z,1.75
2023-04-20T03:15:36.741Z,2.72
2023-04-20T03:20:58.526Z,1.48
2023-04-20T03:26:20.758Z,2.05
2023-04-20T03:31:42.783Z,1.48
2023-04-20T03:37:04.954Z,3.75
2023-04-20T03:42:26.772Z,2.20
2023-04-20T03:47:48.584Z,3.15
2023-04-20T03:53:10.571Z,2.08
2023-04-20T03:58:32.351Z,3.10
2023-04-20T04:03:54.571Z,3.78
2023-04-20T04:09:16.774Z,3.38
2023-04-20T04:14:38.834Z,1.42
2023-04-20T04:20:00.606Z,1.83
2023-04-20T04:25:23.526Z,3.47
2023-04-20T04:30:45.701Z,5.55
2023-04-20T04:36:07.876Z,2.00
2023-04-20T04:41:29.668Z,2.40
2023-04-20T04:46:51.514Z,1.45
2023-04-20T04:52:13.712Z,1.50
2023-04-20T04:57:36.402Z,4.13
2023-04-20T05:02:58.397Z,1.33
2023-04-20T05:08:21.780Z,3.28
2023-04-20T05:13:43.640Z,4.28
2023-04-20T05:19:05.668Z,2.10
2023-04-20T05:24:27.539Z,2.85
2023-04-20T05:29:49.486Z,2.97
2023-04-20T05:35:11.420Z,0.98
2023-04-20T05:40:37.507Z,3.55
2023-04-20T05:45:59.307Z,4.72
2023-04-20T05:51:22.314Z,5.35
2023-04-20T05:56:44.105Z,2.70
2023-04-20T06:02:06.377Z,2.97
2023-04-20T06:07:28.185Z,2.10
2023-04-20T06:12:50.039Z,2.67
2023-04-20T06:18:11.862Z,2.33
2023-04-20T06:23:33.677Z,1.40
2023-04-20T06:28:55.455Z,2.50
2023-04-20T06:34:17.329Z,3.83
2023-04-20T06:39:39.294Z,4.55
2023-04-20T06:45:01.203Z,2.22
2023-04-20T06:50:22.955Z,1.08
2023-04-20T06:55:44.824Z,1.30
2023-04-20T07:01:06.771Z,2.53
2023-04-20T07:06:28.851Z,1.00
2023-04-20T07:11:51.027Z,1.85
2023-04-20T07:17:12.777Z,2.30
2023-04-20T07:22:40.536Z,2.38
2023-04-20T07:28:02.395Z,1.45
2023-04-20T07:33:24.505Z,1.73
2023-04-20T07:38:46.295Z,2.72
2023-04-20T07:44:08.102Z,1.35
2023-04-20T07:49:30.147Z,0.73
2023-04-20T07:54:54.033Z,3.00
2023-04-20T08:00:16.291Z,2.00
2023-04-20T08:05:39.371Z,1.38
2023-04-20T08:11:01.302Z,0.90
2023-04-20T08:16:24.073Z,2.25
2023-04-20T08:21:45.944Z,2.25
2023-04-20T08:27:09.467Z,1.10
2023-04-20T08:32:31.548Z,1.08
2023-04-20T08:37:53.357Z,2.15
2023-04-20T08:43:15.135Z,1.40
2023-04-20T08:48:38.181Z,1.23
2023-04-20T08:54:06.232Z,1.55
2023-04-20T08:59:28.253Z,1.30
2023-04-20T09:05:00.881Z,1.27
2023-04-20T09:10:24.467Z,3.53
2023-04-20T09:15:46.211Z,1.52
2023-04-20T09:21:10.004Z,2.85
2023-04-20T09:26:33.778Z,1.60
2023-04-20T09:31:55.908Z,1.40
2023-04-20T09:37:18.238Z,1.42
2023-04-20T09:42:42.028Z,1.23
2023-04-20T09:48:06.707Z,1.20
2023-04-20T09:53:28.685Z,1.67
2023-04-20T09:58:51.949Z,1.00
2023-04-20T10:04:15.081Z,1.70
2023-04-20T10:09:38.051Z,2.38
2023-04-20T10:15:01.502Z,1.30
2023-04-20T10:20:25.990Z,0.98
2023-04-20T10:26:01.961Z,1.88
2023-04-20T10:31:25.409Z,0.93
2023-04-20T10:36:47.525Z,1.02
2023-04-20T10:42:09.929Z,2.25
2023-04-20T10:47:34.416Z,1.70
2023-04-20T10:52:56.380Z,1.27
2023-04-20T10:58:25.127Z,1.65
2023-04-20T11:03:53.821Z,1.10
2023-04-20T11:09:25.012Z,1.00
2023-04-20T11:14:55.099Z,1.45
2023-04-20T11:20:18.736Z,1.75
2023-04-20T11:25:50.879Z,2.05
2023-04-20T11:31:19.078Z,1.48
2023-04-20T11:36:41.829Z,0.82
2023-04-20T11:42:04.638Z,1.17
2023-04-20T11:47:26.674Z,0.65
2023-04-20T11:52:49.095Z,0.63
2023-04-20T11:58:11.185Z,0.65
2023-04-20T12:03:33.382Z,0.70
2023-04-20T12:08:56.531Z,0.55
2023-04-20T12:14:18.326Z,1.27
2023-04-20T12:19:40.139Z,1.05
2023-04-20T12:25:02.111Z,0.82
2023-04-20T12:30:24.190Z,1.27
2023-04-20T12:35:46.028Z,3.50
2023-04-20T12:41:08.194Z,4.28
2023-04-20T12:46:30.137Z,1.25
2023-04-20T12:51:52.255Z,2.80
2023-04-20T12:57:14.120Z,2.40
2023-04-20T13:02:36.262Z,2.55
2023-04-20T13:07:58.195Z,1.17
2023-04-20T13:13:20.002Z,1.73
2023-04-20T13:18:41.881Z,3.08
2023-04-20T13:24:03.900Z,1.58
2023-04-20T13:29:26.523Z,1.42
2023-04-20T13:34:48.316Z,2.35
2023-04-20T13:40:10.491Z,0.88
2023-04-20T13:45:32.401Z,1.25
2023-04-20T13:50:54.491Z,1.30
2023-04-20T13:56:16.964Z,2.95
2023-04-20T14:01:39.268Z,0.70
2023-04-20T14:07:01.097Z,1.75
2023-04-20T14:12:22.941Z,0.98
2023-04-20T14:17:44.774Z,1.48
2023-04-20T14:23:09.300Z,2.25
2023-04-20T14:28:33.369Z,2.70
2023-04-20T14:33:55.384Z,1.50
2023-04-20T14:39:20.180Z,1.95
2023-04-20T14:44:42.101Z,1.83
2023-04-20T14:50:04.819Z,0.70
2023-04-20T14:55:26.778Z,2.85
2023-04-20T15:00:52.203Z,0.80
2023-04-20T15:06:14.082Z,2.53
2023-04-20T15:11:36.052Z,1.30
2023-04-20T15:16:57.930Z,1.33
2023-04-20T15:22:19.704Z,1.05
2023-04-20T15:27:41.555Z,1.52
2023-04-20T15:33:04.357Z,5.00
2023-04-20T15:38:27.304Z,2.17
2023-04-20T15:43:49.212Z,2.45
2023-04-20T15:49:11.145Z,2.35
2023-04-20T15:54:33.211Z,3.17
2023-04-20T15:59:55.229Z,6.28
2023-04-20T16:05:17.281Z,3.78
2023-04-20T16:10:39.145Z,4.95
2023-04-20T16:16:01.020Z,5.32
2023-04-20T16:21:23.651Z,4.43
2023-04-20T16:26:46.553Z,3.88
2023-04-20T16:32:08.470Z,9.57
2023-04-20T16:37:33.741Z,6.10
2023-04-20T16:42:55.708Z,10.43
2023-04-20T16:48:17.963Z,5.53
2023-04-20T16:53:39.749Z,6.15
2023-04-20T16:59:01.491Z,6.45
2023-04-20T17:04:23.649Z,8.40
2023-04-20T17:09:45.607Z,10.80
2023-04-20T17:15:08.137Z,3.88
2023-04-20T17:20:29.964Z,10.93
2023-04-20T17:25:51.748Z,4.95
2023-04-20T17:31:13.607Z,19.15
2023-04-20T17:36:35.482Z,20.80
2023-04-20T17:41:59.913Z,5.45
2023-04-20T17:47:21.710Z,6.82
2023-04-20T17:52:43.622Z,7.38
2023-04-20T17:58:05.514Z,15.20
2023-04-20T18:03:28.502Z,8.10
2023-04-20T18:08:50.405Z,4.95
2023-04-20T18:14:12.260Z,3.47
2023-04-20T18:19:37.174Z,5.97
2023-04-20T18:24:59.032Z,5.75
2023-04-20T18:30:20.901Z,6.97
2023-04-20T18:35:43.810Z,10.30
2023-04-20T18:41:05.720Z,2.55
2023-04-20T18:46:27.517Z,8.80
2023-04-20T18:51:49.341Z,12.45
2023-04-20T18:57:11.260Z,3.38
2023-04-20T19:02:33.518Z,4.82
2023-04-20T19:07:55.585Z,2.70
2023-04-20T19:13:18.046Z,2.17
2023-04-20T19:18:40.168Z,2.28
2023-04-20T19:24:02.068Z,4.45
2023-04-20T19:29:23.982Z,4.15
2023-04-20T19:34:45.816Z,2.38
2023-04-20T19:40:08.800Z,4.90
2023-04-20T19:45:30.832Z,6.13
2023-04-20T19:50:52.885Z,3.00
2023-04-20T19:56:14.661Z,10.25
2023-04-20T20:01:36.631Z,9.48
2023-04-20T20:06:59.380Z,6.57
2023-04-20T20:12:21.184Z,7.38
2023-04-20T20:17:45.438Z,11.38
2023-04-20T20:23:07.228Z,12.73
2023-04-20T20:28:29.574Z,9.82
2023-04-20T20:33:52.296Z,15.20
2023-04-20T20:39:14.552Z,7.03
2023-04-20T20:44:39.147Z,9.15
2023-04-20T20:50:00.977Z,10.47
2023-04-20T20:55:23.188Z,10.13
2023-04-20T21:00:47.258Z,5.63
2023-04-20T21:06:09.159Z,5.97
2023-04-20T21:11:31.042Z,2.75
2023-04-20T21:16:52.884Z,4.10
2023-04-20T21:22:14.762Z,1.88
2023-04-20T21:27:36.837Z,2.75
2023-04-20T21:32:58.677Z,3.72
2023-04-20T21:38:20.652Z,3.10
2023-04-20T21:43:43.543Z,2.90
2023-04-20T21:49:05.641Z,1.30
2023-04-20T21:54:27.539Z,4.80
2023-04-20T21:59:49.324Z,5.22
2023-04-20T22:05:11.771Z,1.77
2023-04-20T22:10:33.770Z,3.97
2023-04-20T22:15:55.902Z,1.55
2023-04-20T22:21:17.746Z,1.23
2023-04-20T22:26:39.599Z,2.38
2023-04-20T22:32:01.441Z,1.05
2023-04-20T22:37:23.272Z,3.85
2023-04-20T22:42:45.464Z,0.70
2023-04-20T22:48:07.924Z,2.83
2023-04-20T22:53:30.425Z,1.25
2023-04-20T22:58:52.320Z,1.30
2023-04-20T23:04:14.374Z,2.22
2023-04-20T23:09:40.140Z,1.45
2023-04-20T23:15:02.134Z,1.27
2023-04-20T23:20:24.381Z,2.72
2023-04-20T23:25:46.243Z,1.25
2023-04-20T23:31:08.058Z,2.75
2023-04-20T23:36:29.919Z,1.23
2023-04-20T23:41:51.780Z,1.67
2023-04-20T23:47:14.792Z,0.63
2023-04-20T23:52:36.677Z,1.00
2023-04-20T23:58:01.067Z,1.25
